createdAt,value
2023-04-08T00:00:40.219Z,4.05
2023-04-08T00:05:34.835Z,3.08
2023-04-08T00:08:01.270Z,4.47
2023-04-08T00:10:27.755Z,6.28
2023-04-08T00:12:54.230Z,3.03
2023-04-08T00:15:20.661Z,2.15
2023-04-08T00:17:47.129Z,4.38
2023-04-08T00:20:14.973Z,3.50
2023-04-08T00:22:41.433Z,3.05
2023-04-08T00:25:08.555Z,3.15
2023-04-08T00:27:35.235Z,1.95
2023-04-08T00:30:01.708Z,3.00
2023-04-08T00:32:28.362Z,3.10
2023-04-08T00:34:54.846Z,3.85
2023-04-08T00:37:22.767Z,3.13
2023-04-08T00:39:49.198Z,2.55
2023-04-08T00:42:15.756Z,3.20
2023-04-08T00:44:42.183Z,3.05
2023-04-08T00:47:12.144Z,4.07
2023-04-08T00:49:38.667Z,3.35
2023-04-08T00:52:05.370Z,2.92
2023-04-08T00:54:33.296Z,3.97
2023-04-08T00:56:59.871Z,3.10
2023-04-08T00:59:27.443Z,3.03
2023-04-08T01:02:03.855Z,4.30
2023-04-08T01:04:41.019Z,3.03
2023-04-08T01:07:14.875Z,3.30
2023-04-08T01:12:17.005Z,2.08
2023-04-08T01:14:46.744Z,2.63
2023-04-08T01:17:13.414Z,3.20
2023-04-08T01:19:41.475Z,1.77
2023-04-08T01:22:19.077Z,2.88
2023-04-08T01:24:50.004Z,3.03
2023-04-08T01:27:19.112Z,2.58
2023-04-08T01:29:48.490Z,2.97
2023-04-08T01:32:16.054Z,3.08
2023-04-08T01:34:43.910Z,1.70
2023-04-08T01:37:12.284Z,2.95
2023-04-08T01:39:41.336Z,4.10
2023-04-08T01:42:08.996Z,2.25
2023-04-08T01:44:38.005Z,2.83
2023-04-08T01:47:04.808Z,2.45
2023-04-08T01:49:32.121Z,2.50
2023-04-08T01:51:58.919Z,2.72
2023-04-08T01:54:25.392Z,3.30
2023-04-08T01:56:54.246Z,2.35
2023-04-08T01:59:23.577Z,2.72
2023-04-08T02:01:53.299Z,2.80
2023-04-08T02:04:19.949Z,2.53
2023-04-08T02:06:47.190Z,2.50
2023-04-08T02:09:13.715Z,2.90
2023-04-08T02:11:40.128Z,2.70
2023-04-08T02:14:06.715Z,2.17
2023-04-08T02:16:39.972Z,2.95
2023-04-08T02:19:11.562Z,2.22
2023-04-08T02:21:43.900Z,1.63
2023-04-08T02:24:13.696Z,2.33
2023-04-08T02:26:43.699Z,2.65
2023-04-08T02:29:12.658Z,1.75
2023-04-08T02:31:41.498Z,2.58
2023-04-08T02:34:11.015Z,1.83
2023-04-08T02:36:38.436Z,3.20
2023-04-08T02:39:04.983Z,2.15
2023-04-08T02:41:31.633Z,2.03
2023-04-08T02:43:58.353Z,1.55
2023-04-08T02:46:24.991Z,2.60
2023-04-08T02:48:51.812Z,1.88
2023-04-08T02:51:19.583Z,2.22
2023-04-08T02:53:46.033Z,2.88
2023-04-08T02:56:12.653Z,2.60
2023-04-08T02:58:39.166Z,2.03
2023-04-08T03:01:05.753Z,2.03
2023-04-08T03:03:32.293Z,4.07
2023-04-08T03:05:58.904Z,1.33
2023-04-08T03:08:26.718Z,3.33
2023-04-08T03:10:53.232Z,3.58
2023-04-08T03:13:19.714Z,2.95
2023-04-08T03:15:46.245Z,3.13
2023-04-08T03:18:13.499Z,2.92
2023-04-08T03:20:39.927Z,2.25
2023-04-08T03:23:06.401Z,2.60
2023-04-08T03:25:34.168Z,2.53
2023-04-08T03:28:00.620Z,2.38
2023-04-08T03:30:27.215Z,2.83
2023-04-08T03:32:54.072Z,3.10
2023-04-08T03:35:20.643Z,2.42
2023-04-08T03:37:47.282Z,3.35
2023-04-08T03:40:13.914Z,2.45
2023-04-08T03:42:41.717Z,3.38
2023-04-08T03:45:08.720Z,2.22
2023-04-08T03:47:35.257Z,2.80
2023-04-08T03:50:01.834Z,1.85
2023-04-08T03:52:28.401Z,3.10
2023-04-08T03:54:54.832Z,2.85
2023-04-08T03:57:21.292Z,1.70
2023-04-08T03:59:49.058Z,2.45
2023-04-08T04:02:15.616Z,1.98
2023-04-08T04:04:42.239Z,2.72
2023-04-08T04:07:08.723Z,2.00
2023-04-08T04:09:35.232Z,2.83
2023-04-08T04:12:01.729Z,3.05
2023-04-08T04:14:28.284Z,3.78
2023-04-08T04:16:56.084Z,2.30
2023-04-08T04:19:22.501Z,2.40
2023-04-08T04:21:49.089Z,1.92
2023-04-08T04:24:15.541Z,2.38
2023-04-08T04:26:42.011Z,2.70
2023-04-08T04:29:08.451Z,1.88
2023-04-08T04:31:34.985Z,2.70
2023-04-08T04:34:02.819Z,2.80
2023-04-08T04:36:29.306Z,3.45
2023-04-08T04:38:56.109Z,2.85
2023-04-08T04:41:22.694Z,2.55
2023-04-08T04:43:49.126Z,2.33
2023-04-08T04:46:15.744Z,5.25
2023-04-08T04:48:42.263Z,3.10
2023-04-08T04:51:10.083Z,3.50
2023-04-08T04:53:36.605Z,3.72
2023-04-08T04:56:03.249Z,2.65
2023-04-08T04:58:30.086Z,2.00
2023-04-08T05:00:56.828Z,3.22
2023-04-08T05:03:23.346Z,1.90
2023-04-08T05:05:51.756Z,2.83
2023-04-08T05:08:19.794Z,3.97
2023-04-08T05:10:46.296Z,2.83
2023-04-08T05:13:12.897Z,3.33
2023-04-08T05:15:39.356Z,2.40
2023-04-08T05:18:05.945Z,3.50
2023-04-08T05:20:32.464Z,4.07
2023-04-08T05:22:58.969Z,4.28
2023-04-08T05:25:26.844Z,2.65
2023-04-08T05:27:53.308Z,3.10
2023-04-08T05:30:19.968Z,3.05
2023-04-08T05:32:46.471Z,2.92
2023-04-08T05:35:12.941Z,2.67
2023-04-08T05:37:39.401Z,3.55
2023-04-08T05:40:06.783Z,3.75
2023-04-08T05:42:34.529Z,2.45
2023-04-08T05:45:01.077Z,3.20
2023-04-08T05:47:27.654Z,3.38
2023-04-08T05:49:54.241Z,2.70
2023-04-08T05:52:20.763Z,4.22
2023-04-08T05:54:47.252Z,3.17
2023-04-08T05:57:13.845Z,3.85
2023-04-08T05:59:41.613Z,3.70
2023-04-08T06:02:08.230Z,3.28
2023-04-08T06:04:34.856Z,4.88
2023-04-08T06:07:01.378Z,4.20
2023-04-08T06:09:27.841Z,4.28
2023-04-08T06:11:54.315Z,3.30
2023-04-08T06:14:20.750Z,6.28
2023-04-08T06:16:48.487Z,4.75
2023-04-08T06:19:14.956Z,3.90
2023-04-08T06:21:41.516Z,4.82
2023-04-08T06:24:07.932Z,4.18
2023-04-08T06:26:34.618Z,3.40
2023-04-08T06:29:01.198Z,5.22
2023-04-08T06:31:27.643Z,4.43
2023-04-08T06:33:55.401Z,3.20
2023-04-08T06:36:22.185Z,4.28
2023-04-08T06:38:48.886Z,4.97
2023-04-08T06:41:15.465Z,3.50
2023-04-08T06:43:41.923Z,5.38
2023-04-08T06:46:08.442Z,6.00
2023-04-08T06:48:34.946Z,3.22
2023-04-08T06:51:03.044Z,3.72
2023-04-08T06:53:29.544Z,5.20
2023-04-08T06:55:55.974Z,3.15
2023-04-08T06:58:22.459Z,4.95
2023-04-08T07:00:49.004Z,4.75
2023-04-08T07:03:15.550Z,3.40
2023-04-08T07:05:42.034Z,3.47
2023-04-08T07:08:09.858Z,3.50
2023-04-08T07:10:36.439Z,3.80
2023-04-08T07:13:03.425Z,4.53
2023-04-08T07:15:29.939Z,4.43
2023-04-08T07:17:56.650Z,4.57
2023-04-08T07:20:23.183Z,2.38
2023-04-08T07:22:49.732Z,3.30
2023-04-08T07:25:17.869Z,3.15
2023-04-08T07:27:44.321Z,3.13
2023-04-08T07:30:11.261Z,2.72
2023-04-08T07:32:37.837Z,2.33
2023-04-08T07:35:04.901Z,3.28
2023-04-08T07:37:31.347Z,3.33
2023-04-08T07:39:57.853Z,2.58
2023-04-08T07:42:25.602Z,2.10
2023-04-08T07:44:52.074Z,3.75
2023-04-08T07:47:18.503Z,3.47
2023-04-08T07:49:46.154Z,2.25
2023-04-08T07:52:12.601Z,3.88
2023-04-08T07:54:39.053Z,2.15
2023-04-08T07:57:05.592Z,3.78
2023-04-08T07:59:33.380Z,2.92
2023-04-08T08:01:59.862Z,2.60
2023-04-08T08:04:26.646Z,4.07
2023-04-08T08:06:53.245Z,1.70
2023-04-08T08:09:19.672Z,3.75
2023-04-08T08:11:46.189Z,3.88
2023-04-08T08:14:14.130Z,1.98
2023-04-08T08:16:41.927Z,2.88
2023-04-08T08:19:08.419Z,2.10
2023-04-08T08:21:36.874Z,2.90
2023-04-08T08:24:03.469Z,2.67
2023-04-08T08:26:29.945Z,2.80
2023-04-08T08:28:56.577Z,2.38
2023-04-08T08:31:23.100Z,1.85
2023-04-08T08:33:51.061Z,3.65
2023-04-08T08:36:17.797Z,2.50
2023-04-08T08:38:44.391Z,2.53
2023-04-08T08:41:10.927Z,2.50
2023-04-08T08:43:38.398Z,2.50
2023-04-08T08:46:06.040Z,2.75
2023-04-08T08:48:32.585Z,1.33
2023-04-08T08:51:00.654Z,3.05
2023-04-08T08:53:30.055Z,1.98
2023-04-08T08:58:26.931Z,2.10
2023-04-08T09:00:53.470Z,1.70
2023-04-08T09:03:21.845Z,1.42
2023-04-08T09:05:50.061Z,2.53
2023-04-08T09:08:28.420Z,2.33
2023-04-08T09:10:55.137Z,2.67
2023-04-08T09:13:22.646Z,2.33
2023-04-08T09:16:02.038Z,2.38
2023-04-08T09:18:28.579Z,2.35
2023-04-08T09:20:55.008Z,2.10
2023-04-08T09:23:21.465Z,2.03
2023-04-08T09:25:49.266Z,1.98
2023-04-08T09:28:19.441Z,2.47
2023-04-08T09:30:45.903Z,1.65
2023-04-08T09:33:12.433Z,1.58
2023-04-08T09:35:38.964Z,1.35
2023-04-08T09:38:05.532Z,1.63
2023-04-08T09:40:34.884Z,1.60
2023-04-08T09:43:05.257Z,2.72
2023-04-08T09:45:33.918Z,1.67
2023-04-08T09:48:08.947Z,1.73
2023-04-08T09:50:42.864Z,1.48
2023-04-08T09:53:13.586Z,2.53
2023-04-08T09:55:43.510Z,2.85
2023-04-08T09:58:18.874Z,2.05
2023-04-08T10:00:49.272Z,2.72
2023-04-08T10:03:26.670Z,1.52
2023-04-08T10:05:54.350Z,1.45
2023-04-08T10:08:22.036Z,1.65
2023-04-08T10:10:49.078Z,2.15
2023-04-08T10:13:17.349Z,2.13
2023-04-08T10:15:43.809Z,2.88
2023-04-08T10:18:30.106Z,1.48
2023-04-08T10:20:56.593Z,2.15
2023-04-08T10:23:52.898Z,1.20
2023-04-08T10:26:31.764Z,1.40
2023-04-08T10:29:31.225Z,1.88
2023-04-08T10:31:57.956Z,1.60
2023-04-08T10:34:26.268Z,2.45
2023-04-08T10:36:54.842Z,2.63
2023-04-08T10:39:22.271Z,1.40
2023-04-08T10:41:50.460Z,1.95
2023-04-08T10:44:18.645Z,1.73
2023-04-08T10:46:45.339Z,2.92
2023-04-08T10:49:11.906Z,1.75
2023-04-08T10:51:38.785Z,1.80
2023-04-08T10:54:07.056Z,1.13
2023-04-08T10:56:33.578Z,2.10
2023-04-08T10:59:00.022Z,1.70
2023-04-08T11:01:27.802Z,1.25
2023-04-08T11:03:54.533Z,2.17
2023-04-08T11:06:21.160Z,0.93
2023-04-08T11:08:47.744Z,3.22
2023-04-08T11:11:14.749Z,1.05
2023-04-08T11:13:51.071Z,2.08
2023-04-08T11:16:21.079Z,1.83
2023-04-08T11:18:50.612Z,1.85
2023-04-08T11:21:17.288Z,2.03
2023-04-08T11:23:43.876Z,2.60
2023-04-08T11:26:11.164Z,2.72
2023-04-08T11:28:37.973Z,1.42
2023-04-08T11:31:05.626Z,1.30
2023-04-08T11:33:32.345Z,1.52
2023-04-08T11:36:01.973Z,1.98
2023-04-08T11:38:28.534Z,1.35
2023-04-08T11:40:55.930Z,1.95
2023-04-08T11:43:22.554Z,1.08
2023-04-08T11:45:49.242Z,1.10
2023-04-08T11:48:16.850Z,2.05
2023-04-08T11:50:44.409Z,1.48
2023-04-08T11:53:21.510Z,1.92
2023-04-08T11:55:48.201Z,2.70
2023-04-08T11:58:15.445Z,0.95
2023-04-08T12:00:42.537Z,0.60
2023-04-08T12:03:09.446Z,1.58
2023-04-08T12:05:36.094Z,0.75
2023-04-08T12:08:02.611Z,0.88
2023-04-08T12:10:30.647Z,1.55
2023-04-08T12:12:57.078Z,1.20
2023-04-08T12:15:23.859Z,1.40
2023-04-08T12:17:50.510Z,1.33
2023-04-08T12:20:17.000Z,1.70
2023-04-08T12:22:43.508Z,2.60
2023-04-08T12:25:10.154Z,1.90
2023-04-08T12:27:37.996Z,1.65
2023-04-08T12:30:05.318Z,1.35
2023-04-08T12:32:31.762Z,0.93
2023-04-08T12:34:58.256Z,1.25
2023-04-08T12:37:24.786Z,0.82
2023-04-08T12:39:51.221Z,1.08
2023-04-08T12:42:17.707Z,1.38
2023-04-08T12:44:45.554Z,1.10
2023-04-08T12:47:12.178Z,1.00
2023-04-08T12:52:08.257Z,1.00
2023-04-08T12:54:34.779Z,1.80
2023-04-08T12:57:01.244Z,1.02
2023-04-08T12:59:27.691Z,1.75
2023-04-08T13:01:55.559Z,2.22
2023-04-08T13:04:22.072Z,1.55
2023-04-08T13:06:48.550Z,1.30
2023-04-08T13:09:14.981Z,1.50
2023-04-08T13:11:41.482Z,0.77
2023-04-08T13:14:08.019Z,2.10
2023-04-08T13:16:34.537Z,1.85
2023-04-08T13:19:02.366Z,1.35
2023-04-08T13:21:28.943Z,1.42
2023-04-08T13:23:55.431Z,0.88
2023-04-08T13:26:21.946Z,1.00
2023-04-08T13:28:56.775Z,0.82
2023-04-08T13:31:24.496Z,0.85
2023-04-08T13:33:51.097Z,1.48
2023-04-08T13:36:18.826Z,0.70
2023-04-08T13:38:45.265Z,0.57
2023-04-08T13:41:11.741Z,0.90
2023-04-08T13:43:38.181Z,1.88
2023-04-08T13:46:04.789Z,2.03
2023-04-08T13:48:31.265Z,0.40
2023-04-08T13:50:57.748Z,2.22
2023-04-08T13:53:25.753Z,1.10
2023-04-08T13:55:52.182Z,1.10
2023-04-08T13:58:23.932Z,1.77
2023-04-08T14:00:51.360Z,1.40
2023-04-08T14:03:18.308Z,1.90
2023-04-08T14:05:44.759Z,1.38
2023-04-08T14:08:11.228Z,1.48
2023-04-08T14:10:39.305Z,1.23
2023-04-08T14:13:05.766Z,0.93
2023-04-08T14:15:32.185Z,1.25
2023-04-08T14:17:58.678Z,1.85
2023-04-08T14:20:25.216Z,1.02
2023-04-08T14:22:51.639Z,1.27
2023-04-08T14:25:18.196Z,2.42
2023-04-08T14:27:57.355Z,2.03
2023-04-08T14:30:24.788Z,0.80
2023-04-08T14:32:51.297Z,0.70
2023-04-08T14:35:17.972Z,0.70
2023-04-08T14:37:44.476Z,1.50
2023-04-08T14:40:11.677Z,1.42
2023-04-08T14:42:38.112Z,2.38
2023-04-08T14:45:06.572Z,1.30
2023-04-08T14:47:33.105Z,1.33
2023-04-08T14:49:59.536Z,0.68
2023-04-08T14:52:25.974Z,0.98
2023-04-08T14:54:52.506Z,1.63
2023-04-08T14:57:19.247Z,1.30
2023-04-08T14:59:45.685Z,1.17
2023-04-08T15:02:13.687Z,1.35
2023-04-08T15:04:40.265Z,1.88
2023-04-08T15:07:06.695Z,2.00
2023-04-08T15:09:33.174Z,0.95
2023-04-08T15:11:59.612Z,0.73
2023-04-08T15:14:26.102Z,0.95
2023-04-08T15:16:52.551Z,0.75
2023-04-08T15:19:20.335Z,0.77
2023-04-08T15:21:46.783Z,1.42
2023-04-08T15:24:13.245Z,1.77
2023-04-08T15:26:39.708Z,1.23
2023-04-08T15:29:06.322Z,1.38
2023-04-08T15:31:32.819Z,0.88
2023-04-08T15:33:59.382Z,1.20
2023-04-08T15:36:27.201Z,1.10
2023-04-08T15:38:53.866Z,1.13
2023-04-08T15:41:20.955Z,2.38
2023-04-08T15:43:47.990Z,0.93
2023-04-08T15:46:18.046Z,1.10
2023-04-08T15:48:44.536Z,1.15
2023-04-08T15:51:11.272Z,1.50
2023-04-08T15:53:39.367Z,1.83
2023-04-08T15:56:06.247Z,1.13
2023-04-08T15:58:32.816Z,0.95
2023-04-08T16:00:59.350Z,0.63
2023-04-08T16:03:25.890Z,1.02
2023-04-08T16:05:52.547Z,0.50
2023-04-08T16:08:18.993Z,2.47
2023-04-08T16:10:46.716Z,1.88
2023-04-08T16:13:13.149Z,0.95
2023-04-08T16:15:39.677Z,1.08
2023-04-08T16:18:06.140Z,1.30
2023-04-08T16:20:32.688Z,2.15
2023-04-08T16:22:59.428Z,0.80
2023-04-08T16:25:27.165Z,3.20
2023-04-08T16:27:56.163Z,0.93
2023-04-08T16:30:22.657Z,1.52
2023-04-08T16:32:49.295Z,1.40
2023-04-08T16:35:15.856Z,1.15
2023-04-08T16:37:42.309Z,0.80
2023-04-08T16:40:09.677Z,1.50
2023-04-08T16:42:36.091Z,1.45
2023-04-08T16:45:04.214Z,1.30
2023-04-08T16:47:30.768Z,1.00
2023-04-08T16:49:57.283Z,1.10
2023-04-08T16:52:23.720Z,0.70
2023-04-08T16:54:50.212Z,1.63
2023-04-08T16:57:16.650Z,1.73
2023-04-08T16:59:43.212Z,1.27
2023-04-08T17:02:11.212Z,1.55
2023-04-08T17:04:37.893Z,1.25
2023-04-08T17:07:04.342Z,1.58
2023-04-08T17:09:30.812Z,1.75
2023-04-08T17:11:57.297Z,1.80
2023-04-08T17:14:23.796Z,2.17
2023-04-08T17:16:50.450Z,0.85
2023-04-08T17:19:18.337Z,0.75
2023-04-08T17:21:44.949Z,1.75
2023-04-08T17:24:11.473Z,1.67
2023-04-08T17:26:40.476Z,3.03
2023-04-08T17:29:07.222Z,1.20
2023-04-08T17:31:33.850Z,1.35
2023-04-08T17:34:00.303Z,2.00
2023-04-08T17:36:30.415Z,1.33
2023-04-08T17:38:57.195Z,1.75
2023-04-08T17:41:38.382Z,1.67
2023-04-08T17:44:05.972Z,2.30
2023-04-08T17:46:32.559Z,1.88
2023-04-08T17:48:59.017Z,3.50
2023-04-08T17:51:25.546Z,2.67
2023-04-08T17:53:53.332Z,1.15
2023-04-08T17:56:19.781Z,3.85
2023-04-08T17:58:46.243Z,2.75
2023-04-08T18:01:12.694Z,2.55
2023-04-08T18:03:39.360Z,3.45
2023-04-08T18:06:07.227Z,1.90
2023-04-08T18:08:33.771Z,3.30
2023-04-08T18:11:04.252Z,2.53
2023-04-08T18:13:30.724Z,2.83
2023-04-08T18:15:57.145Z,3.72
2023-04-08T18:18:23.656Z,3.00
2023-04-08T18:20:50.163Z,1.95
2023-04-08T18:23:16.739Z,3.88
2023-04-08T18:25:46.004Z,2.78
2023-04-08T18:28:13.835Z,2.45
2023-04-08T18:30:40.428Z,2.10
2023-04-08T18:33:06.931Z,2.47
2023-04-08T18:35:33.461Z,2.83
2023-04-08T18:37:59.920Z,1.98
2023-04-08T18:40:26.666Z,3.20
2023-04-08T18:42:53.123Z,2.45
2023-04-08T18:45:20.859Z,3.35
2023-04-08T18:47:47.341Z,3.15
2023-04-08T18:50:13.843Z,3.00
2023-04-08T18:52:40.308Z,3.00
2023-04-08T18:55:06.829Z,2.45
2023-04-08T18:57:33.300Z,2.72
2023-04-08T18:59:59.777Z,3.08
2023-04-08T19:02:27.546Z,2.63
2023-04-08T19:04:54.252Z,4.28
2023-04-08T19:07:20.800Z,2.88
2023-04-08T19:09:47.326Z,4.18
2023-04-08T19:12:13.926Z,3.00
2023-04-08T19:14:40.412Z,2.83
2023-04-08T19:17:06.845Z,3.70
2023-04-08T19:19:34.825Z,3.20
2023-04-08T19:22:01.275Z,2.30
2023-04-08T19:24:27.728Z,4.70
2023-04-08T19:26:54.164Z,2.60
2023-04-08T19:29:20.610Z,2.97
2023-04-08T19:31:47.193Z,2.63
2023-04-08T19:34:13.669Z,2.78
2023-04-08T19:36:41.462Z,2.25
2023-04-08T19:39:08.002Z,4.65
2023-04-08T19:41:34.473Z,4.47
2023-04-08T19:44:01.013Z,4.00
2023-04-08T19:46:28.313Z,3.53
2023-04-08T19:48:54.796Z,2.72
2023-04-08T19:51:21.248Z,3.40
2023-04-08T19:53:49.383Z,3.50
2023-04-08T19:56:16.037Z,2.75
2023-04-08T19:58:42.701Z,3.88
2023-04-08T20:01:09.133Z,2.97
2023-04-08T20:03:35.886Z,4.05
2023-04-08T20:06:02.528Z,3.10
2023-04-08T20:08:28.955Z,2.90
2023-04-08T20:10:56.804Z,4.18
2023-04-08T20:13:23.277Z,3.05
2023-04-08T20:15:49.869Z,2.97
2023-04-08T20:18:16.325Z,3.58
2023-04-08T20:20:42.800Z,3.28
2023-04-08T20:23:09.285Z,2.40
2023-04-08T20:25:35.772Z,3.45
2023-04-08T20:28:03.531Z,4.03
2023-04-08T20:30:29.988Z,2.50
2023-04-08T20:32:56.516Z,6.50
2023-04-08T20:35:22.995Z,2.85
2023-04-08T20:37:49.532Z,3.10
2023-04-08T20:40:18.240Z,2.97
2023-04-08T20:42:44.996Z,4.03
2023-04-08T20:45:12.784Z,3.55
2023-04-08T20:47:39.418Z,3.30
2023-04-08T20:50:06.994Z,3.30
2023-04-08T20:52:33.446Z,4.88
2023-04-08T20:54:59.896Z,3.70
2023-04-08T20:57:26.906Z,3.83
2023-04-08T20:59:53.372Z,3.10
2023-04-08T21:02:21.204Z,4.03
2023-04-08T21:04:47.817Z,3.00
2023-04-08T21:07:14.297Z,3.30
2023-04-08T21:09:40.809Z,4.10
2023-04-08T21:12:07.259Z,3.92
2023-04-08T21:14:33.795Z,4.18
2023-04-08T21:17:00.506Z,4.03
2023-04-08T21:19:28.360Z,4.05
2023-04-08T21:21:54.822Z,3.60
2023-04-08T21:24:21.295Z,3.38
2023-04-08T21:26:47.800Z,5.47
2023-04-08T21:29:14.220Z,4.03
2023-04-08T21:31:40.669Z,4.30
2023-04-08T21:34:07.122Z,3.30
2023-04-08T21:36:34.918Z,4.18
2023-04-08T21:39:01.333Z,4.03
2023-04-08T21:41:30.229Z,4.20
2023-04-08T21:43:57.042Z,4.05
2023-04-08T21:46:23.734Z,3.85
2023-04-08T21:48:50.420Z,4.10
2023-04-08T21:51:17.613Z,4.97
2023-04-08T21:53:45.471Z,5.10
2023-04-08T21:56:12.019Z,4.82
2023-04-08T21:58:38.464Z,4.88
2023-04-08T22:01:05.041Z,5.07
2023-04-08T22:03:31.681Z,4.93
2023-04-08T22:05:58.184Z,3.83
2023-04-08T22:08:24.718Z,6.18
2023-04-08T22:10:52.432Z,6.45
2023-04-08T22:13:18.891Z,4.03
2023-04-08T22:15:45.330Z,4.78
2023-04-08T22:18:11.864Z,4.72
2023-04-08T22:20:38.331Z,4.70
2023-04-08T22:23:04.882Z,5.63
2023-04-08T22:25:31.373Z,4.88
2023-04-08T22:27:59.158Z,4.00
2023-04-08T22:30:25.624Z,4.88
2023-04-08T22:32:52.065Z,5.13
2023-04-08T22:35:18.579Z,6.00
2023-04-08T22:37:45.001Z,4.78
2023-04-08T22:40:11.818Z,4.28
2023-04-08T22:42:38.333Z,5.50
2023-04-08T22:45:07.057Z,5.13
2023-04-08T22:47:33.531Z,5.88
2023-04-08T22:50:00.136Z,5.43
2023-04-08T22:52:26.614Z,4.97
2023-04-08T22:54:53.245Z,6.22
2023-04-08T22:57:19.717Z,5.13
2023-04-08T22:59:46.127Z,4.78
2023-04-08T23:02:13.998Z,4.35
2023-04-08T23:04:40.513Z,4.93
2023-04-08T23:07:06.940Z,6.10
2023-04-08T23:09:33.451Z,6.70
2023-04-08T23:11:59.980Z,5.05
2023-04-08T23:14:26.471Z,4.63
2023-04-08T23:16:52.981Z,4.95
2023-04-08T23:19:20.747Z,4.20
2023-04-08T23:21:47.261Z,5.38
2023-04-08T23:24:13.746Z,4.72
2023-04-08T23:26:40.320Z,4.85
2023-04-08T23:29:06.763Z,6.38
2023-04-08T23:31:33.230Z,5.53
2023-04-08T23:33:59.701Z,7.93
2023-04-08T23:36:27.450Z,5.80
2023-04-08T23:38:54.031Z,5.05
2023-04-08T23:41:20.606Z,5.60
2023-04-08T23:43:47.067Z,4.30
2023-04-08T23:46:13.713Z,5.20
2023-04-08T23:48:40.239Z,4.95
2023-04-08T23:51:06.733Z,5.20
2023-04-08T23:53:34.560Z,4.88
2023-04-08T23:56:05.239Z,5.50
2023-04-08T23:58:32.039Z,5.35
